Danali, Honduras
Current Conditions -  °F | °C
As of 10:00 PM on Wednesday 22 Oct 2014 (Local Time) from MHTG Reporting Station
Broken Clouds Broken Clouds  
Wind Chill: 68°   Ceiling: 2800
Heat Index: 68°   Visibility: 6mi
Dew Point: 68°   Wind: 3mph
Humidity: 100%   Direction: 160°SSE
Pressure: 30.06"   Gusts: NA
Location:  14.02°N, 86.3°W
Report Text: MHTG 230400Z 16003KT 9999 BKN028 20/20 Q1018 A3006 NOSIG
Loading
Personal Weather Stations






























Interactive Weather Map New forecast layout! Learn more

10-Day Weather Forecast

Advertisements
Track Severe Weather on mobile